AAL2404 KSAN-KPHX
Flight info
| Callsign | AAL2404 |
|---|---|
| Flight time | 0h 57m |
| Altitude | 29000 |
| Route | ZZOOO4 HOGGZ HYDRR1 |
| Aircraft | A20N/M-SDE2E3FGHIRWXY/LB1 |
Departure
| Time | 2026-05-05 15:27 |
|---|---|
| Airport | San Diego International Airport (KSAN) |
Arrival
| Time | 2026-05-05 16:24 |
|---|---|
| Airport | Phoenix Sky Harbor International Airport (KPHX) |
| Time | Latitude | Longitude | Altitude | Speed | Heading |
|---|---|---|---|---|---|
| 2026-05-05 14:32 | 32.73390 | -117.20461 | 27 ft | 0 kts | 87° |
| 2026-05-05 15:08 | 32.73389 | -117.20482 | 27 ft | 4 kts | 84° |
| 2026-05-05 15:08 | 32.73386 | -117.20511 | 26 ft | 4 kts | 77° |
| 2026-05-05 15:08 | 32.73379 | -117.20538 | 26 ft | 4 kts | 60° |
| 2026-05-05 15:09 | 32.73365 | -117.20557 | 26 ft | 4 kts | 9° |
| 2026-05-05 15:09 | 32.73360 | -117.20558 | 26 ft | 1 kts | 358° |
| 2026-05-05 15:15 | 32.73363 | -117.20558 | 26 ft | 1 kts | 358° |
| 2026-05-05 15:15 | 32.73381 | -117.20558 | 32 ft | 4 kts | 359° |
| 2026-05-05 15:15 | 32.73413 | -117.20558 | 28 ft | 6 kts | 1° |
| 2026-05-05 15:16 | 32.73460 | -117.20558 | 26 ft | 6 kts | 5° |
| 2026-05-05 15:16 | 32.73487 | -117.20541 | 24 ft | 0 kts | 41° |
| 2026-05-05 15:18 | 32.73508 | -117.20515 | 22 ft | 7 kts | 48° |
| 2026-05-05 15:19 | 32.73549 | -117.20460 | 25 ft | 9 kts | 49° |
| 2026-05-05 15:19 | 32.73588 | -117.20401 | 23 ft | 8 kts | 63° |
| 2026-05-05 15:19 | 32.73587 | -117.20349 | 26 ft | 7 kts | 102° |
| 2026-05-05 15:19 | 32.73575 | -117.20297 | 30 ft | 8 kts | 105° |
| 2026-05-05 15:20 | 32.73556 | -117.20216 | 28 ft | 10 kts | 105° |
| 2026-05-05 15:20 | 32.73527 | -117.20096 | 28 ft | 18 kts | 106° |
| 2026-05-05 15:20 | 32.73493 | -117.19958 | 29 ft | 17 kts | 106° |
| 2026-05-05 15:20 | 32.73462 | -117.19828 | 30 ft | 16 kts | 106° |
| 2026-05-05 15:21 | 32.73430 | -117.19698 | 29 ft | 17 kts | 105° |
| 2026-05-05 15:21 | 32.73396 | -117.19557 | 30 ft | 20 kts | 105° |
| 2026-05-05 15:21 | 32.73358 | -117.19401 | 29 ft | 20 kts | 106° |
| 2026-05-05 15:21 | 32.73318 | -117.19234 | 27 ft | 21 kts | 105° |
| 2026-05-05 15:22 | 32.73277 | -117.19068 | 29 ft | 20 kts | 106° |
| 2026-05-05 15:22 | 32.73239 | -117.18910 | 30 ft | 20 kts | 106° |
| 2026-05-05 15:22 | 32.73202 | -117.18757 | 42 ft | 19 kts | 106° |
| 2026-05-05 15:22 | 32.73166 | -117.18607 | 33 ft | 20 kts | 106° |
| 2026-05-05 15:23 | 32.73126 | -117.18444 | 31 ft | 21 kts | 106° |
| 2026-05-05 15:23 | 32.73086 | -117.18279 | 30 ft | 21 kts | 106° |
| 2026-05-05 15:23 | 32.73045 | -117.18109 | 28 ft | 22 kts | 106° |
| 2026-05-05 15:23 | 32.73003 | -117.17934 | 31 ft | 20 kts | 105° |
| 2026-05-05 15:24 | 32.72963 | -117.17782 | 27 ft | 20 kts | 108° |
| 2026-05-05 15:24 | 32.72948 | -117.17709 | 28 ft | 4 kts | 85° |
| 2026-05-05 15:24 | 32.72952 | -117.17689 | 27 ft | 0 kts | 75° |
| 2026-05-05 15:25 | 32.72953 | -117.17684 | 27 ft | 5 kts | 75° |
| 2026-05-05 15:25 | 32.72968 | -117.17631 | 28 ft | 11 kts | 63° |
| 2026-05-05 15:25 | 32.73024 | -117.17605 | 29 ft | 1 kts | 311° |
| 2026-05-05 15:26 | 32.73027 | -117.17613 | 29 ft | 4 kts | 295° |
| 2026-05-05 15:26 | 32.73030 | -117.17626 | 29 ft | 0 kts | 285° |
| 2026-05-05 15:26 | 32.73058 | -117.17745 | 28 ft | 48 kts | 286° |
| 2026-05-05 15:26 | 32.73219 | -117.18400 | 30 ft | 116 kts | 286° |
| 2026-05-05 15:27 | 32.73501 | -117.19545 | 87 ft | 164 kts | 287° |
| 2026-05-05 15:27 | 32.73814 | -117.20795 | 865 ft | 156 kts | 287° |
| 2026-05-05 15:27 | 32.74117 | -117.22049 | 1785 ft | 158 kts | 285° |
| 2026-05-05 15:27 | 32.74436 | -117.23392 | 2338 ft | 187 kts | 285° |
| 2026-05-05 15:28 | 32.74825 | -117.25027 | 2806 ft | 218 kts | 285° |
| 2026-05-05 15:28 | 32.75251 | -117.26795 | 3746 ft | 225 kts | 285° |
| 2026-05-05 15:28 | 32.75686 | -117.28593 | 4804 ft | 228 kts | 285° |
| 2026-05-05 15:28 | 32.76126 | -117.30416 | 5768 ft | 232 kts | 285° |
| 2026-05-05 15:29 | 32.76462 | -117.32304 | 6692 ft | 236 kts | 274° |
| 2026-05-05 15:29 | 32.76281 | -117.34234 | 7592 ft | 239 kts | 252° |
| 2026-05-05 15:29 | 32.75428 | -117.35940 | 8543 ft | 244 kts | 229° |
| 2026-05-05 15:29 | 32.74001 | -117.37077 | 9472 ft | 254 kts | 204° |
| 2026-05-05 15:30 | 32.72221 | -117.37359 | 10323 ft | 267 kts | 177° |
| 2026-05-05 15:30 | 32.70451 | -117.36601 | 11136 ft | 279 kts | 148° |
| 2026-05-05 15:30 | 32.69077 | -117.34939 | 12016 ft | 286 kts | 129° |
| 2026-05-05 15:30 | 32.67930 | -117.32996 | 12908 ft | 289 kts | 126° |
| 2026-05-05 15:31 | 32.66810 | -117.31002 | 13818 ft | 292 kts | 126° |
| 2026-05-05 15:31 | 32.65670 | -117.28991 | 14613 ft | 295 kts | 126° |
| 2026-05-05 15:31 | 32.64522 | -117.26991 | 15374 ft | 299 kts | 126° |
| 2026-05-05 15:31 | 32.63441 | -117.24860 | 16107 ft | 305 kts | 114° |
| 2026-05-05 15:32 | 32.62884 | -117.22352 | 16644 ft | 320 kts | 99° |
| 2026-05-05 15:32 | 32.62610 | -117.19677 | 16914 ft | 342 kts | 96° |
| 2026-05-05 15:32 | 32.62371 | -117.16737 | 17193 ft | 363 kts | 96° |
| 2026-05-05 15:32 | 32.62121 | -117.13691 | 17652 ft | 377 kts | 96° |
| 2026-05-05 15:33 | 32.62118 | -117.10548 | 18306 ft | 385 kts | 82° |
| 2026-05-05 15:33 | 32.62803 | -117.07464 | 18985 ft | 390 kts | 70° |
| 2026-05-05 15:33 | 32.63768 | -117.04432 | 19648 ft | 395 kts | 68° |
| 2026-05-05 15:33 | 32.64772 | -117.01426 | 20298 ft | 400 kts | 68° |
| 2026-05-05 15:34 | 32.65789 | -116.98331 | 20955 ft | 405 kts | 70° |
| 2026-05-05 15:34 | 32.66512 | -116.95088 | 21603 ft | 410 kts | 82° |
| 2026-05-05 15:34 | 32.66756 | -116.91705 | 22241 ft | 414 kts | 88° |
| 2026-05-05 15:34 | 32.66851 | -116.88270 | 22808 ft | 418 kts | 89° |
| 2026-05-05 15:35 | 32.66922 | -116.84810 | 23022 ft | 418 kts | 90° |
| 2026-05-05 15:35 | 32.66992 | -116.81370 | 23042 ft | 416 kts | 90° |
| 2026-05-05 15:35 | 32.67065 | -116.77937 | 23040 ft | 416 kts | 90° |
| 2026-05-05 15:35 | 32.67106 | -116.74504 | 23042 ft | 416 kts | 91° |
| 2026-05-05 15:36 | 32.67067 | -116.71068 | 23045 ft | 416 kts | 92° |
| 2026-05-05 15:36 | 32.67009 | -116.67640 | 23034 ft | 416 kts | 93° |
| 2026-05-05 15:36 | 32.66950 | -116.64209 | 23038 ft | 416 kts | 92° |
| 2026-05-05 15:36 | 32.66892 | -116.60778 | 23036 ft | 416 kts | 92° |
| 2026-05-05 15:37 | 32.66834 | -116.57349 | 23037 ft | 416 kts | 92° |
| 2026-05-05 15:37 | 32.66776 | -116.53919 | 23110 ft | 416 kts | 93° |
| 2026-05-05 15:37 | 32.66717 | -116.50474 | 23632 ft | 419 kts | 93° |
| 2026-05-05 15:37 | 32.66657 | -116.47002 | 24114 ft | 423 kts | 93° |
| 2026-05-05 15:38 | 32.66617 | -116.43488 | 24519 ft | 430 kts | 91° |
| 2026-05-05 15:38 | 32.66812 | -116.39912 | 24916 ft | 438 kts | 87° |
| 2026-05-05 15:38 | 32.67127 | -116.36294 | 25300 ft | 444 kts | 86° |
| 2026-05-05 15:38 | 32.67466 | -116.32626 | 25692 ft | 450 kts | 86° |
| 2026-05-05 15:39 | 32.67808 | -116.28915 | 26077 ft | 455 kts | 86° |
| 2026-05-05 15:39 | 32.68152 | -116.25159 | 26453 ft | 461 kts | 88° |
| 2026-05-05 15:39 | 32.68499 | -116.21333 | 26690 ft | 470 kts | 88° |
| 2026-05-05 15:39 | 32.68847 | -116.17453 | 27051 ft | 476 kts | 88° |
| 2026-05-05 15:40 | 32.69199 | -116.13527 | 27438 ft | 481 kts | 89° |
| 2026-05-05 15:40 | 32.69553 | -116.09551 | 27775 ft | 486 kts | 89° |
| 2026-05-05 15:40 | 32.69910 | -116.05536 | 28072 ft | 492 kts | 89° |
| 2026-05-05 15:40 | 32.70274 | -116.01487 | 28459 ft | 496 kts | 89° |
| 2026-05-05 15:41 | 32.70653 | -115.97395 | 28790 ft | 500 kts | 89° |
| 2026-05-05 15:41 | 32.70906 | -115.94670 | 28920 ft | 504 kts | 89° |
| 2026-05-05 15:41 | 32.71290 | -115.90525 | 28983 ft | 506 kts | 89° |
| 2026-05-05 15:42 | 32.72058 | -115.82202 | 28974 ft | 508 kts | 89° |
| 2026-05-05 15:42 | 32.72820 | -115.73863 | 28973 ft | 508 kts | 89° |
| 2026-05-05 15:43 | 32.73575 | -115.65511 | 28974 ft | 512 kts | 90° |
| 2026-05-05 15:43 | 32.74335 | -115.57025 | 28949 ft | 518 kts | 91° |
| 2026-05-05 15:44 | 32.74979 | -115.48522 | 28951 ft | 514 kts | 95° |
| 2026-05-05 15:44 | 32.75181 | -115.40057 | 28948 ft | 513 kts | 96° |
| 2026-05-05 15:45 | 32.75362 | -115.31595 | 28911 ft | 513 kts | 96° |
| 2026-05-05 15:45 | 32.75550 | -115.23116 | 28964 ft | 514 kts | 96° |
| 2026-05-05 15:46 | 32.75737 | -115.14628 | 28963 ft | 514 kts | 96° |
| 2026-05-05 15:46 | 32.75920 | -115.06137 | 28958 ft | 514 kts | 97° |
| 2026-05-05 15:47 | 32.76098 | -114.97651 | 28933 ft | 514 kts | 97° |
| 2026-05-05 15:47 | 32.76269 | -114.89202 | 28940 ft | 515 kts | 97° |
| 2026-05-05 15:48 | 32.76436 | -114.80691 | 28953 ft | 515 kts | 97° |
| 2026-05-05 15:48 | 32.76597 | -114.72175 | 28951 ft | 516 kts | 97° |
| 2026-05-05 15:49 | 32.76753 | -114.63664 | 28960 ft | 515 kts | 97° |
| 2026-05-05 15:49 | 32.76894 | -114.55210 | 28693 ft | 503 kts | 97° |
| 2026-05-05 15:49 | 32.76957 | -114.51097 | 28429 ft | 493 kts | 98° |
| 2026-05-05 15:50 | 32.77014 | -114.47057 | 28173 ft | 484 kts | 98° |
| 2026-05-05 15:50 | 32.77069 | -114.43092 | 27912 ft | 476 kts | 98° |
| 2026-05-05 15:50 | 32.77120 | -114.39198 | 27654 ft | 468 kts | 98° |
| 2026-05-05 15:50 | 32.77169 | -114.35357 | 27149 ft | 462 kts | 98° |
| 2026-05-05 15:51 | 32.77212 | -114.31533 | 26556 ft | 465 kts | 98° |
| 2026-05-05 15:51 | 32.77255 | -114.27691 | 26096 ft | 464 kts | 97° |
| 2026-05-05 15:51 | 32.77301 | -114.23881 | 25743 ft | 459 kts | 97° |
| 2026-05-05 15:51 | 32.77347 | -114.20110 | 25442 ft | 454 kts | 97° |
| 2026-05-05 15:52 | 32.77390 | -114.16372 | 25203 ft | 452 kts | 96° |
| 2026-05-05 15:52 | 32.77427 | -114.12607 | 24986 ft | 463 kts | 96° |
| 2026-05-05 15:52 | 32.77463 | -114.08716 | 24906 ft | 478 kts | 95° |
| 2026-05-05 15:52 | 32.77715 | -114.04732 | 24900 ft | 486 kts | 89° |
| 2026-05-05 15:53 | 32.78136 | -114.00750 | 24909 ft | 486 kts | 88° |
| 2026-05-05 15:53 | 32.78585 | -113.96774 | 24916 ft | 486 kts | 88° |
| 2026-05-05 15:53 | 32.79032 | -113.92800 | 24918 ft | 485 kts | 88° |
| 2026-05-05 15:53 | 32.79475 | -113.88819 | 24917 ft | 485 kts | 88° |
| 2026-05-05 15:54 | 32.79913 | -113.84843 | 24924 ft | 485 kts | 88° |
| 2026-05-05 15:54 | 32.80346 | -113.80923 | 24925 ft | 470 kts | 88° |
| 2026-05-05 15:54 | 32.80764 | -113.77132 | 24928 ft | 456 kts | 89° |
| 2026-05-05 15:54 | 32.81163 | -113.73464 | 24913 ft | 452 kts | 89° |
| 2026-05-05 15:55 | 32.81821 | -113.69780 | 24925 ft | 461 kts | 73° |
| 2026-05-05 15:55 | 32.83323 | -113.66409 | 24680 ft | 463 kts | 52° |
| 2026-05-05 15:55 | 32.85389 | -113.63489 | 24331 ft | 460 kts | 46° |
| 2026-05-05 15:55 | 32.87544 | -113.60693 | 23992 ft | 457 kts | 45° |
| 2026-05-05 15:56 | 32.89679 | -113.57917 | 23661 ft | 453 kts | 45° |
| 2026-05-05 15:56 | 32.91780 | -113.55152 | 23283 ft | 448 kts | 46° |
| 2026-05-05 15:56 | 32.93842 | -113.52408 | 22946 ft | 442 kts | 46° |
| 2026-05-05 15:56 | 32.95876 | -113.49687 | 22631 ft | 436 kts | 47° |
| 2026-05-05 15:57 | 32.97872 | -113.47004 | 22284 ft | 430 kts | 48° |
| 2026-05-05 15:57 | 32.99840 | -113.44353 | 21989 ft | 423 kts | 48° |
| 2026-05-05 15:57 | 33.01776 | -113.41740 | 21663 ft | 419 kts | 48° |
| 2026-05-05 15:57 | 33.03700 | -113.39139 | 21371 ft | 417 kts | 48° |
| 2026-05-05 15:58 | 33.05617 | -113.36549 | 21061 ft | 415 kts | 48° |
| 2026-05-05 15:58 | 33.07518 | -113.33980 | 20754 ft | 412 kts | 48° |
| 2026-05-05 15:58 | 33.09403 | -113.31433 | 20453 ft | 408 kts | 49° |
| 2026-05-05 15:58 | 33.11274 | -113.28903 | 20155 ft | 405 kts | 49° |
| 2026-05-05 15:59 | 33.13127 | -113.26396 | 19857 ft | 401 kts | 49° |
| 2026-05-05 15:59 | 33.14965 | -113.23907 | 19564 ft | 398 kts | 49° |
| 2026-05-05 15:59 | 33.16785 | -113.21440 | 19266 ft | 395 kts | 49° |
| 2026-05-05 15:59 | 33.18591 | -113.18991 | 19024 ft | 391 kts | 49° |
| 2026-05-05 16:00 | 33.20381 | -113.16563 | 18746 ft | 388 kts | 49° |
| 2026-05-05 16:00 | 33.22156 | -113.14152 | 18460 ft | 386 kts | 49° |
| 2026-05-05 16:00 | 33.23924 | -113.11751 | 18169 ft | 382 kts | 49° |
| 2026-05-05 16:00 | 33.25664 | -113.09371 | 17849 ft | 379 kts | 51° |
| 2026-05-05 16:01 | 33.27043 | -113.06727 | 17576 ft | 373 kts | 72° |
| 2026-05-05 16:01 | 33.27547 | -113.03751 | 17317 ft | 363 kts | 90° |
| 2026-05-05 16:01 | 33.27665 | -113.00754 | 17050 ft | 360 kts | 93° |
| 2026-05-05 16:01 | 33.27721 | -112.97767 | 16790 ft | 359 kts | 94° |
| 2026-05-05 16:02 | 33.27774 | -112.94791 | 16525 ft | 357 kts | 93° |
| 2026-05-05 16:02 | 33.27834 | -112.91835 | 16269 ft | 355 kts | 93° |
| 2026-05-05 16:02 | 33.27899 | -112.88891 | 16012 ft | 353 kts | 93° |
| 2026-05-05 16:02 | 33.27966 | -112.85966 | 15753 ft | 352 kts | 93° |
| 2026-05-05 16:03 | 33.28040 | -112.83056 | 15546 ft | 346 kts | 91° |
| 2026-05-05 16:03 | 33.28233 | -112.80223 | 15302 ft | 341 kts | 88° |
| 2026-05-05 16:03 | 33.28490 | -112.77421 | 14998 ft | 339 kts | 88° |
| 2026-05-05 16:03 | 33.28757 | -112.74631 | 14752 ft | 337 kts | 88° |
| 2026-05-05 16:04 | 33.29021 | -112.71856 | 14507 ft | 335 kts | 88° |
| 2026-05-05 16:04 | 33.29283 | -112.69102 | 14264 ft | 333 kts | 88° |
| 2026-05-05 16:04 | 33.29541 | -112.66360 | 14020 ft | 331 kts | 88° |
| 2026-05-05 16:04 | 33.29796 | -112.63629 | 13773 ft | 330 kts | 88° |
| 2026-05-05 16:05 | 33.30050 | -112.60913 | 13508 ft | 328 kts | 88° |
| 2026-05-05 16:05 | 33.30301 | -112.58212 | 13269 ft | 326 kts | 88° |
| 2026-05-05 16:05 | 33.30547 | -112.55559 | 13024 ft | 324 kts | 88° |
| 2026-05-05 16:05 | 33.30795 | -112.52887 | 12774 ft | 322 kts | 88° |
| 2026-05-05 16:06 | 33.31043 | -112.50194 | 12541 ft | 321 kts | 88° |
| 2026-05-05 16:06 | 33.31284 | -112.47578 | 12313 ft | 320 kts | 88° |
| 2026-05-05 16:06 | 33.31527 | -112.44941 | 12074 ft | 319 kts | 88° |
| 2026-05-05 16:06 | 33.31769 | -112.42315 | 11849 ft | 316 kts | 88° |
| 2026-05-05 16:07 | 33.32007 | -112.39711 | 11615 ft | 314 kts | 88° |
| 2026-05-05 16:07 | 33.32243 | -112.37117 | 11384 ft | 313 kts | 88° |
| 2026-05-05 16:07 | 33.32479 | -112.34535 | 11168 ft | 312 kts | 88° |
| 2026-05-05 16:07 | 33.32713 | -112.31964 | 10977 ft | 311 kts | 88° |
| 2026-05-05 16:08 | 33.32947 | -112.29396 | 10787 ft | 310 kts | 88° |
| 2026-05-05 16:08 | 33.33180 | -112.26836 | 10585 ft | 309 kts | 87° |
| 2026-05-05 16:08 | 33.33412 | -112.24282 | 10393 ft | 308 kts | 87° |
| 2026-05-05 16:08 | 33.33643 | -112.21738 | 10196 ft | 307 kts | 87° |
| 2026-05-05 16:09 | 33.33871 | -112.19216 | 10021 ft | 300 kts | 87° |
| 2026-05-05 16:09 | 33.34093 | -112.16778 | 9851 ft | 290 kts | 87° |
| 2026-05-05 16:09 | 33.34307 | -112.14412 | 9637 ft | 282 kts | 87° |
| 2026-05-05 16:09 | 33.34515 | -112.12120 | 9468 ft | 272 kts | 89° |
| 2026-05-05 16:10 | 33.34703 | -112.09908 | 9312 ft | 262 kts | 90° |
| 2026-05-05 16:10 | 33.34751 | -112.07766 | 9102 ft | 254 kts | 95° |
| 2026-05-05 16:10 | 33.34738 | -112.05664 | 8769 ft | 252 kts | 96° |
| 2026-05-05 16:10 | 33.34706 | -112.03580 | 8503 ft | 250 kts | 96° |
| 2026-05-05 16:11 | 33.34675 | -112.01505 | 8235 ft | 249 kts | 96° |
| 2026-05-05 16:11 | 33.34590 | -111.95386 | 7470 ft | 243 kts | 95° |
| 2026-05-05 16:12 | 33.34588 | -111.93365 | 7222 ft | 243 kts | 94° |
| 2026-05-05 16:12 | 33.34671 | -111.89343 | 6947 ft | 242 kts | 92° |
| 2026-05-05 16:13 | 33.34815 | -111.83324 | 6056 ft | 240 kts | 92° |
| 2026-05-05 16:13 | 33.34863 | -111.81336 | 5781 ft | 238 kts | 91° |
| 2026-05-05 16:13 | 33.34909 | -111.79394 | 5503 ft | 236 kts | 91° |
| 2026-05-05 16:14 | 33.35001 | -111.75464 | 5035 ft | 236 kts | 90° |
| 2026-05-05 16:14 | 33.35092 | -111.71523 | 5031 ft | 237 kts | 91° |
| 2026-05-05 16:15 | 33.35240 | -111.67590 | 4773 ft | 238 kts | 81° |
| 2026-05-05 16:15 | 33.36957 | -111.64476 | 4482 ft | 220 kts | 26° |
| 2026-05-05 16:16 | 33.39706 | -111.64697 | 4059 ft | 199 kts | 322° |
| 2026-05-05 16:16 | 33.40978 | -111.67466 | 4005 ft | 193 kts | 285° |
| 2026-05-05 16:17 | 33.41745 | -111.70287 | 4007 ft | 157 kts | 285° |
| 2026-05-05 16:17 | 33.42083 | -111.71479 | 4010 ft | 148 kts | 285° |
| 2026-05-05 16:18 | 33.42671 | -111.73834 | 4007 ft | 147 kts | 277° |
| 2026-05-05 16:18 | 33.42807 | -111.75037 | 4013 ft | 145 kts | 268° |
| 2026-05-05 16:18 | 33.42863 | -111.77435 | 4004 ft | 144 kts | 266° |
| 2026-05-05 16:19 | 33.42860 | -111.78641 | 4007 ft | 146 kts | 266° |
| 2026-05-05 16:19 | 33.42859 | -111.79857 | 4016 ft | 146 kts | 268° |
| 2026-05-05 16:19 | 33.42882 | -111.82253 | 4009 ft | 143 kts | 268° |
| 2026-05-05 16:20 | 33.42889 | -111.84624 | 3703 ft | 137 kts | 268° |
| 2026-05-05 16:20 | 33.42888 | -111.86768 | 3316 ft | 126 kts | 268° |
| 2026-05-05 16:21 | 33.42886 | -111.88857 | 2981 ft | 125 kts | 268° |
| 2026-05-05 16:22 | 33.42886 | -111.92004 | 2482 ft | 124 kts | 269° |
| 2026-05-05 16:22 | 33.42887 | -111.94083 | 2204 ft | 135 kts | 270° |
| 2026-05-05 16:23 | 33.42886 | -111.96232 | 1835 ft | 126 kts | 266° |
| 2026-05-05 16:23 | 33.42843 | -111.97312 | 1663 ft | 130 kts | 269° |
| 2026-05-05 16:23 | 33.42881 | -111.99376 | 1324 ft | 120 kts | 270° |
| 2026-05-05 16:24 | 33.42887 | -112.00371 | 1158 ft | 119 kts | 271° |
| 2026-05-05 16:24 | 33.42889 | -112.01247 | 1138 ft | 83 kts | 269° |
| 2026-05-05 16:24 | 33.42896 | -112.02053 | 1131 ft | 35 kts | 284° |
| 2026-05-05 16:25 | 33.42985 | -112.02233 | 1134 ft | 7 kts | 291° |
| 2026-05-05 16:25 | 33.42986 | -112.02235 | 1134 ft | 0 kts | 289° |
| 2026-05-05 16:26 | 33.42988 | -112.02243 | 1133 ft | 4 kts | 289° |
| 2026-05-05 16:27 | 33.42995 | -112.02280 | 1131 ft | 5 kts | 275° |
| 2026-05-05 16:27 | 33.42996 | -112.02320 | 1132 ft | 5 kts | 270° |
| 2026-05-05 16:27 | 33.42996 | -112.02362 | 1134 ft | 5 kts | 269° |
| 2026-05-05 16:27 | 33.42996 | -112.02422 | 1133 ft | 9 kts | 269° |
| 2026-05-05 16:28 | 33.43000 | -112.02498 | 1132 ft | 10 kts | 285° |
| 2026-05-05 16:28 | 33.43052 | -112.02545 | 1132 ft | 10 kts | 350° |
| 2026-05-05 16:28 | 33.43125 | -112.02547 | 1132 ft | 10 kts | 1° |
| 2026-05-05 16:28 | 33.43193 | -112.02526 | 1133 ft | 9 kts | 34° |
| 2026-05-05 16:29 | 33.43225 | -112.02476 | 1133 ft | 7 kts | 48° |
| 2026-05-05 16:29 | 33.43249 | -112.02458 | 1134 ft | 5 kts | 24° |
| 2026-05-05 16:29 | 33.43282 | -112.02433 | 1136 ft | 5 kts | 55° |
| 2026-05-05 16:29 | 33.43288 | -112.02393 | 1135 ft | 6 kts | 87° |
| 2026-05-05 16:30 | 33.43289 | -112.02330 | 1137 ft | 10 kts | 89° |
| 2026-05-05 16:30 | 33.43289 | -112.02217 | 1135 ft | 10 kts | 90° |
| 2026-05-05 16:30 | 33.43289 | -112.02161 | 1137 ft | 10 kts | 91° |
| 2026-05-05 16:30 | 33.43288 | -112.02077 | 1133 ft | 10 kts | 90° |
| 2026-05-05 16:31 | 33.43289 | -112.01994 | 1137 ft | 10 kts | 90° |
| 2026-05-05 16:31 | 33.43289 | -112.01911 | 1133 ft | 10 kts | 90° |
| 2026-05-05 16:31 | 33.43289 | -112.01827 | 1137 ft | 10 kts | 90° |
| 2026-05-05 16:31 | 33.43289 | -112.01744 | 1137 ft | 10 kts | 90° |
| 2026-05-05 16:32 | 33.43288 | -112.01658 | 1136 ft | 10 kts | 91° |
| 2026-05-05 16:32 | 33.43288 | -112.01575 | 1137 ft | 10 kts | 89° |
| 2026-05-05 16:32 | 33.43288 | -112.01457 | 1137 ft | 19 kts | 90° |
| 2026-05-05 16:32 | 33.43287 | -112.01300 | 1137 ft | 19 kts | 90° |
| 2026-05-05 16:33 | 33.43288 | -112.01144 | 1137 ft | 19 kts | 89° |
| 2026-05-05 16:33 | 33.43288 | -112.00992 | 1137 ft | 18 kts | 90° |
| 2026-05-05 16:33 | 33.43288 | -112.00844 | 1134 ft | 18 kts | 90° |
| 2026-05-05 16:33 | 33.43289 | -112.00698 | 1134 ft | 17 kts | 90° |
| 2026-05-05 16:34 | 33.43287 | -112.00556 | 1135 ft | 17 kts | 92° |
| 2026-05-05 16:34 | 33.43328 | -112.00468 | 1139 ft | 13 kts | 3° |
| 2026-05-05 16:34 | 33.43431 | -112.00469 | 1136 ft | 16 kts | 360° |
| 2026-05-05 16:34 | 33.43542 | -112.00470 | 1136 ft | 16 kts | 0° |
| 2026-05-05 16:35 | 33.43657 | -112.00470 | 1136 ft | 17 kts | 360° |
| 2026-05-05 16:35 | 33.43773 | -112.00469 | 1136 ft | 17 kts | 0° |
| 2026-05-05 16:35 | 33.43886 | -112.00464 | 1137 ft | 14 kts | 27° |
| 2026-05-05 16:35 | 33.43904 | -112.00377 | 1134 ft | 10 kts | 89° |
| 2026-05-05 16:36 | 33.43905 | -112.00290 | 1134 ft | 11 kts | 90° |
| 2026-05-05 16:36 | 33.43904 | -112.00191 | 1134 ft | 12 kts | 90° |
| 2026-05-05 16:36 | 33.43905 | -112.00093 | 1134 ft | 12 kts | 90° |
| 2026-05-05 16:36 | 33.43860 | -112.00034 | 1137 ft | 10 kts | 174° |
| 2026-05-05 16:37 | 33.43788 | -112.00034 | 1134 ft | 10 kts | 182° |
| 2026-05-05 16:37 | 33.43753 | -112.00011 | 1136 ft | 4 kts | 103° |
| 2026-05-05 16:37 | 33.43752 | -111.99993 | 1137 ft | 0 kts | 91° |
| 2026-05-05 16:37 | 33.43752 | -111.99989 | 1137 ft | 1 kts | 90° |
| 2026-05-05 16:38 | 33.43752 | -111.99983 | 1137 ft | 0 kts | 90° |